Time;durP1;ratioP1;P1;durP2;ratioP2;P2;SDS_P1;SDS_P2;PMS_P1;PMS_P2;Temp;Humidity;BMP_temperature;BMP_pressure;BME280_temperature;BME280_humidity;BME280_pressure;Samples;Min_cycle;Max_cycle;Signal;HPM_P1;HPM_P2
2021/03/05 00:01:01;;;;;;;22.48;12.90;;;8.20;76.80;;;;;;5034218;28;20025;-63
2021/03/05 00:03:26;;;;;;;24.40;14.05;;;8.20;76.50;;;;;;5032965;28;20040;-65
2021/03/05 00:05:53;;;;;;;23.35;14.13;;;8.20;76.50;;;;;;5028068;28;20033;-64
2021/03/05 00:08:18;;;;;;;27.38;15.52;;;8.20;76.50;;;;;;5034091;28;20412;-69
2021/03/05 00:10:45;;;;;;;25.65;14.13;;;8.20;76.50;;;;;;5032091;28;20028;-64
2021/03/05 00:13:12;;;;;;;23.83;14.05;;;8.10;76.50;;;;;;5032647;28;20333;-64
2021/03/05 00:15:42;;;;;;;23.60;14.02;;;8.20;76.60;;;;;;5029174;28;20029;-65
2021/03/05 00:18:08;;;;;;;23.65;14.43;;;8.20;76.70;;;;;;5033757;28;20675;-64
2021/03/05 00:20:36;;;;;;;23.95;13.73;;;8.20;76.50;;;;;;5025847;28;20038;-64
2021/03/05 00:23:03;;;;;;;24.73;14.35;;;8.30;76.60;;;;;;5019582;28;20031;-64
2021/03/05 00:25:28;;;;;;;23.27;13.30;;;8.30;76.50;;;;;;5027331;28;20125;-66
2021/03/05 00:27:54;;;;;;;23.85;13.18;;;8.30;76.40;;;;;;5031705;28;20120;-66
2021/03/05 00:30:20;;;;;;;24.08;14.13;;;8.20;76.30;;;;;;5032131;28;20029;-63
2021/03/05 00:32:46;;;;;;;26.35;15.00;;;8.20;76.50;;;;;;5027518;28;20543;-64
2021/03/05 00:35:14;;;;;;;22.50;13.18;;;8.20;76.50;;;;;;5027315;28;20032;-66
2021/03/05 00:37:41;;;;;;;23.33;13.70;;;8.20;76.50;;;;;;5024603;28;20432;-65
2021/03/05 00:40:12;;;;;;;22.98;13.38;;;8.20;76.50;;;;;;5022314;28;20037;-67
2021/03/05 00:42:40;;;;;;;24.95;14.65;;;8.20;76.60;;;;;;5033135;28;20024;-64
2021/03/05 00:45:07;;;;;;;22.55;13.15;;;8.20;76.50;;;;;;5030869;28;20410;-64
2021/03/05 00:47:33;;;;;;;23.42;13.93;;;8.30;76.40;;;;;;5031458;28;20029;-67
2021/03/05 00:49:59;;;;;;;23.35;13.75;;;8.30;76.30;;;;;;5032415;28;20033;-65
2021/03/05 00:52:25;;;;;;;21.73;13.85;;;8.30;76.30;;;;;;5032432;28;20032;-69
2021/03/05 00:54:51;;;;;;;24.17;13.40;;;8.40;76.20;;;;;;5018999;28;20032;-65
2021/03/05 00:57:16;;;;;;;19.98;12.55;;;8.30;76.10;;;;;;5031664;28;20029;-64
2021/03/05 00:59:42;;;;;;;21.52;12.23;;;8.30;76.20;;;;;;5029560;28;20035;-64
2021/03/05 01:02:08;;;;;;;19.00;10.98;;;8.20;76.10;;;;;;5031276;28;20082;-64
2021/03/05 01:04:34;;;;;;;16.35;10.07;;;8.20;76.20;;;;;;5031418;28;20082;-64
2021/03/05 01:06:59;;;;;;;13.15;8.82;;;8.10;76.30;;;;;;5018577;28;20072;-71
2021/03/05 01:09:25;;;;;;;13.63;8.32;;;8.10;76.50;;;;;;5031657;28;20036;-65
2021/03/05 01:11:51;;;;;;;10.27;7.78;;;8.00;77.20;;;;;;5031485;28;20025;-64
2021/03/05 01:14:17;;;;;;;9.35;6.93;;;8.00;76.60;;;;;;5030959;28;20044;-64
2021/03/05 01:16:42;;;;;;;9.68;6.80;;;7.90;76.60;;;;;;5019824;28;20478;-65
2021/03/05 01:19:11;;;;;;;9.13;6.70;;;7.80;76.70;;;;;;5013390;28;20025;-65
2021/03/05 01:21:36;;;;;;;10.20;6.93;;;7.80;76.70;;;;;;5021460;28;20268;-64
2021/03/05 01:24:03;;;;;;;11.15;7.28;;;7.90;76.80;;;;;;5025906;28;20875;-66
2021/03/05 01:26:28;;;;;;;12.15;8.00;;;7.80;76.70;;;;;;5043704;28;20049;-65
2021/03/05 01:28:54;;;;;;;12.35;7.90;;;7.80;76.70;;;;;;5031479;28;20064;-67
2021/03/05 01:31:20;;;;;;;9.90;6.65;;;7.70;76.70;;;;;;5027121;28;20038;-68
2021/03/05 01:33:45;;;;;;;10.20;7.07;;;7.60;76.80;;;;;;5031448;28;20119;-64
2021/03/05 01:36:11;;;;;;;10.10;6.28;;;7.60;76.90;;;;;;5024763;28;20505;-64
2021/03/05 01:38:37;;;;;;;10.00;6.10;;;7.60;76.80;;;;;;5031045;28;20102;-65
2021/03/05 01:41:04;;;;;;;8.40;6.18;;;7.50;76.60;;;;;;5027756;28;20439;-64
2021/03/05 01:43:35;;;;;;;8.20;5.53;;;7.40;76.60;;;;;;5032536;28;20139;-64
2021/03/05 01:46:01;;;;;;;7.60;5.43;;;7.30;76.70;;;;;;5029776;28;20021;-65
2021/03/05 01:48:28;;;;;;;9.00;6.05;;;7.30;76.80;;;;;;5028351;28;20036;-65
2021/03/05 01:51:17;;;;;;;7.15;5.03;;;7.20;76.80;;;;;;5016333;28;20116;-65
2021/03/05 01:53:44;;;;;;;7.75;5.43;;;7.20;76.90;;;;;;5026856;28;20065;-65
2021/03/05 01:56:34;;;;;;;6.25;4.95;;;7.10;76.70;;;;;;5027413;28;20029;-65
2021/03/05 01:59:02;;;;;;;6.65;5.13;;;7.10;76.80;;;;;;5027327;28;20112;-64
2021/03/05 02:01:29;;;;;;;6.40;4.65;;;7.00;76.70;;;;;;5031803;28;20538;-64
2021/03/05 02:03:56;;;;;;;7.60;5.28;;;7.00;76.60;;;;;;5024840;28;20099;-65
2021/03/05 02:06:23;;;;;;;6.40;4.57;;;7.00;76.60;;;;;;5028247;28;20025;-65
2021/03/05 02:08:49;;;;;;;6.32;4.65;;;6.90;76.50;;;;;;5036150;28;20059;-64
2021/03/05 02:11:22;;;;;;;7.10;5.03;;;6.90;76.60;;;;;;5029204;28;20029;-64
2021/03/05 02:13:48;;;;;;;5.13;4.53;;;6.80;76.70;;;;;;5033082;28;20025;-66
2021/03/05 02:16:41;;;;;;;8.20;5.38;;;6.80;76.50;;;;;;5026799;28;20093;-66
2021/03/05 02:19:33;;;;;;;7.20;5.00;;;6.80;76.60;;;;;;5035929;28;20064;-64
2021/03/05 02:22:18;;;;;;;7.32;5.18;;;6.70;76.40;;;;;;5021609;28;20033;-64
2021/03/05 02:25:20;;;;;;;7.88;6.00;;;6.60;76.40;;;;;;5026831;28;20033;-64
2021/03/05 02:28:25;;;;;;;6.82;5.40;;;6.60;76.40;;;;;;5033947;28;20021;-65
2021/03/05 02:31:28;;;;;;;10.18;6.40;;;6.50;76.40;;;;;;5024710;28;20123;-64
2021/03/05 02:34:01;;;;;;;8.35;6.07;;;6.50;76.40;;;;;;5043300;28;20477;-67
2021/03/05 02:36:30;;;;;;;;;;;6.40;76.30;;;;;;5034104;28;20041;-65
2021/03/05 02:39:16;;;;;;;8.90;6.22;;;6.40;76.00;;;;;;5030295;28;19913;-66
2021/03/05 02:41:46;;;;;;;8.90;5.72;;;6.40;76.30;;;;;;5023895;28;20037;-64
2021/03/05 02:44:24;;;;;;;11.50;7.40;;;6.30;76.20;;;;;;5032147;28;20533;-67
2021/03/05 02:46:52;;;;;;;9.93;7.18;;;6.30;76.40;;;;;;5035053;28;20025;-65
2021/03/05 02:49:21;;;;;;;8.50;6.07;;;6.20;76.40;;;;;;5035186;28;20087;-64
2021/03/05 02:51:49;;;;;;;11.90;7.18;;;6.10;76.40;;;;;;5033940;28;20029;-64
2021/03/05 02:54:17;;;;;;;7.93;6.10;;;6.10;76.60;;;;;;5028627;28;20029;-68
2021/03/05 02:56:46;;;;;;;10.60;7.30;;;6.10;76.60;;;;;;5026556;28;20048;-66
2021/03/05 02:59:13;;;;;;;9.23;6.75;;;6.10;76.60;;;;;;5033916;28;20045;-64
2021/03/05 03:01:45;;;;;;;9.60;6.75;;;6.10;76.70;;;;;;5032589;28;20053;-67
2021/03/05 03:04:13;;;;;;;11.18;6.97;;;6.10;76.60;;;;;;5033653;28;20432;-65
2021/03/05 03:06:41;;;;;;;9.68;6.22;;;6.00;76.50;;;;;;5033686;28;21749;-68
2021/03/05 03:09:07;;;;;;;9.55;6.32;;;6.00;76.50;;;;;;5033822;28;20048;-66
2021/03/05 03:11:34;;;;;;;7.50;5.45;;;6.00;76.40;;;;;;5032938;28;20528;-67
2021/03/05 03:14:01;;;;;;;8.30;5.50;;;5.90;76.50;;;;;;5022963;28;20538;-64
2021/03/05 03:16:28;;;;;;;7.50;5.53;;;5.90;76.40;;;;;;5018473;28;20128;-67
2021/03/05 03:18:55;;;;;;;7.82;5.82;;;5.80;76.30;;;;;;5022774;28;20068;-65
2021/03/05 03:21:22;;;;;;;9.15;6.20;;;5.80;76.50;;;;;;5033258;28;20120;-64
2021/03/05 03:23:48;;;;;;;8.43;5.80;;;5.70;76.50;;;;;;5028092;28;20110;-67
2021/03/05 03:26:14;;;;;;;9.73;6.28;;;5.70;76.50;;;;;;5025502;28;20140;-66
2021/03/05 03:28:39;;;;;;;8.55;6.05;;;5.70;76.40;;;;;;5033392;28;20498;-68
2021/03/05 03:31:09;;;;;;;10.35;6.85;;;5.70;76.40;;;;;;5030654;28;20116;-65
2021/03/05 03:33:35;;;;;;;11.85;7.07;;;5.60;76.40;;;;;;5030278;28;20389;-64
2021/03/05 03:36:03;;;;;;;10.10;6.55;;;5.60;76.30;;;;;;5031493;28;20036;-64
2021/03/05 03:38:30;;;;;;;11.93;7.07;;;5.50;76.40;;;;;;5031047;28;20029;-64
2021/03/05 03:40:57;;;;;;;10.75;6.60;;;5.50;76.40;;;;;;5027942;28;20434;-65
2021/03/05 03:43:23;;;;;;;9.70;6.45;;;5.50;76.60;;;;;;5028721;28;20127;-64
2021/03/05 03:45:49;;;;;;;10.70;7.18;;;5.50;76.60;;;;;;5030867;28;20123;-64
2021/03/05 03:48:15;;;;;;;10.50;6.68;;;5.50;76.50;;;;;;5022868;28;21613;-67
2021/03/05 03:51:02;;;;;;;12.35;7.45;;;5.50;76.40;;;;;;5034188;28;20032;-67
2021/03/05 03:53:30;;;;;;;10.82;6.28;;;5.40;76.30;;;;;;5018804;28;20104;-64
2021/03/05 03:55:56;;;;;;;10.98;7.10;;;5.40;76.30;;;;;;5021793;28;20052;-67
2021/03/05 03:58:24;;;;;;;8.15;5.57;;;5.40;76.30;;;;;;5027381;28;20021;-64
2021/03/05 04:00:53;;;;;;;8.68;5.57;;;5.40;76.30;;;;;;5034132;28;20055;-65
2021/03/05 04:03:23;;;;;;;9.02;5.43;;;5.40;76.40;;;;;;5023805;28;20032;-64
2021/03/05 04:05:51;;;;;;;7.88;5.30;;;5.30;76.30;;;;;;5032663;28;20488;-64
2021/03/05 04:08:18;;;;;;;6.72;4.80;;;5.30;76.30;;;;;;5033257;28;20040;-66
2021/03/05 04:10:45;;;;;;;6.35;4.43;;;5.30;76.30;;;;;;5031987;28;20203;-64
2021/03/05 04:13:14;;;;;;;7.32;4.90;;;5.30;76.20;;;;;;5019370;28;20513;-64
2021/03/05 04:15:41;;;;;;;7.93;4.85;;;5.30;76.30;;;;;;5032571;28;20025;-64
2021/03/05 04:18:06;;;;;;;7.80;4.60;;;5.30;76.30;;;;;;5030135;28;20041;-64
2021/03/05 04:20:38;;;;;;;7.72;5.00;;;5.30;76.30;;;;;;5031788;28;20420;-64
2021/03/05 04:23:05;;;;;;;7.38;5.38;;;5.20;76.20;;;;;;5027233;28;20460;-65
2021/03/05 04:25:31;;;;;;;7.68;5.00;;;5.20;76.20;;;;;;5026247;28;20133;-64
2021/03/05 04:27:57;;;;;;;7.85;4.80;;;5.20;76.00;;;;;;5026922;28;20074;-64
2021/03/05 04:30:23;;;;;;;7.72;5.20;;;5.20;76.00;;;;;;5031916;28;20022;-64
2021/03/05 04:32:48;;;;;;;7.53;4.95;;;5.20;76.00;;;;;;5026680;28;20037;-65
2021/03/05 04:35:14;;;;;;;6.70;4.97;;;5.20;76.00;;;;;;5030853;28;20118;-64
2021/03/05 04:37:40;;;;;;;7.68;4.45;;;5.20;76.00;;;;;;5038196;28;20064;-65
2021/03/05 04:40:08;;;;;;;8.07;5.22;;;5.20;76.00;;;;;;5020350;28;20473;-64
2021/03/05 04:42:34;;;;;;;7.50;4.80;;;5.20;76.00;;;;;;5023564;28;20025;-64
2021/03/05 04:45:00;;;;;;;9.00;5.80;;;5.20;76.00;;;;;;5027145;28;20029;-64
2021/03/05 04:47:26;;;;;;;8.43;5.50;;;5.20;76.10;;;;;;5022925;28;20030;-64
2021/03/05 04:49:51;;;;;;;7.25;4.95;;;5.20;76.00;;;;;;5013529;28;20027;-64
2021/03/05 04:52:17;;;;;;;8.52;5.30;;;5.20;76.10;;;;;;5025938;28;20383;-64
2021/03/05 04:54:42;;;;;;;9.30;5.72;;;5.20;76.10;;;;;;5028383;28;20088;-65
2021/03/05 04:57:08;;;;;;;8.60;5.85;;;5.20;75.90;;;;;;5032356;28;20460;-67
2021/03/05 04:59:34;;;;;;;10.45;6.15;;;5.10;75.60;;;;;;5032207;28;20075;-63
2021/03/05 05:01:59;;;;;;;10.02;5.90;;;5.10;75.70;;;;;;5031792;28;20029;-64
2021/03/05 05:04:25;;;;;;;10.35;6.53;;;5.10;75.80;;;;;;5032110;28;20029;-63
2021/03/05 05:06:51;;;;;;;9.55;6.18;;;5.00;75.80;;;;;;5026296;28;20537;-65
2021/03/05 05:09:18;;;;;;;11.75;6.90;;;5.00;75.90;;;;;;5025207;28;20021;-65
2021/03/05 05:11:44;;;;;;;11.07;6.32;;;5.00;75.80;;;;;;5032106;28;20033;-64
2021/03/05 05:14:10;;;;;;;10.98;6.75;;;5.00;75.90;;;;;;5023276;28;20028;-65
2021/03/05 05:16:35;;;;;;;11.90;6.88;;;5.00;75.90;;;;;;5030875;28;20124;-64
2021/03/05 05:19:01;;;;;;;10.90;6.30;;;5.00;76.00;;;;;;5032509;28;20156;-67
2021/03/05 05:21:27;;;;;;;11.52;6.95;;;5.00;76.00;;;;;;5024507;28;20125;-63
2021/03/05 05:23:52;;;;;;;12.23;7.38;;;5.00;76.10;;;;;;5027290;28;20033;-65
2021/03/05 05:26:18;;;;;;;11.63;7.00;;;5.10;76.10;;;;;;5018823;28;20029;-64
2021/03/05 05:28:44;;;;;;;12.80;7.15;;;5.10;75.90;;;;;;5032773;28;20035;-64
2021/03/05 05:31:09;;;;;;;11.75;7.28;;;5.10;75.90;;;;;;5031734;28;20025;-65
2021/03/05 05:33:35;;;;;;;13.68;7.07;;;5.10;75.90;;;;;;5025378;28;20071;-64
2021/03/05 05:36:01;;;;;;;13.00;7.72;;;5.10;76.00;;;;;;5030799;28;20521;-64
2021/03/05 05:38:26;;;;;;;13.30;7.68;;;5.20;75.90;;;;;;5031925;28;20029;-65
2021/03/05 05:40:52;;;;;;;11.32;7.43;;;5.20;75.80;;;;;;5032435;28;20051;-65
2021/03/05 05:43:18;;;;;;;15.75;7.88;;;5.20;75.90;;;;;;5025272;28;20032;-65
2021/03/05 05:45:47;;;;;;;14.63;8.38;;;5.20;75.90;;;;;;5030117;28;20037;-67
2021/03/05 05:48:13;;;;;;;13.70;7.65;;;5.20;76.00;;;;;;5032524;28;20481;-64
2021/03/05 05:50:42;;;;;;;15.45;7.85;;;5.20;75.80;;;;;;5025096;28;20140;-65
2021/03/05 05:53:08;;;;;;;14.95;8.25;;;5.20;76.00;;;;;;5024230;28;20469;-65
2021/03/05 05:55:34;;;;;;;13.23;8.10;;;5.30;76.00;;;;;;5045431;28;20083;-64
2021/03/05 05:58:00;;;;;;;13.93;8.10;;;5.30;75.90;;;;;;5032079;28;20028;-65
2021/03/05 06:00:26;;;;;;;15.75;8.10;;;5.30;75.80;;;;;;5025095;28;20066;-65
2021/03/05 06:02:54;;;;;;;14.93;8.63;;;5.30;75.80;;;;;;5034198;28;20125;-64
2021/03/05 06:05:20;;;;;;;14.43;8.40;;;5.30;75.70;;;;;;5033714;28;20737;-65
2021/03/05 06:07:46;;;;;;;13.45;7.72;;;5.30;75.70;;;;;;5036820;28;20040;-65
2021/03/05 06:10:13;;;;;;;16.50;8.77;;;5.20;75.70;;;;;;5036454;28;20021;-65
2021/03/05 06:12:39;;;;;;;16.50;8.02;;;5.30;75.90;;;;;;5024080;28;20512;-67
2021/03/05 06:15:07;;;;;;;15.60;8.65;;;5.30;75.90;;;;;;5028757;28;20032;-65
2021/03/05 06:17:46;;;;;;;15.05;8.20;;;5.30;75.90;;;;;;5052210;28;20033;-66
2021/03/05 06:20:13;;;;;;;16.65;8.50;;;5.20;75.80;;;;;;5036107;28;20106;-64
2021/03/05 06:22:39;;;;;;;15.75;8.77;;;5.20;75.80;;;;;;5034700;28;20075;-65
2021/03/05 06:25:10;;;;;;;18.17;9.05;;;5.20;75.80;;;;;;5034200;28;20029;-67
2021/03/05 06:27:37;;;;;;;16.52;8.55;;;5.20;75.90;;;;;;5032346;28;20021;-65
2021/03/05 06:30:04;;;;;;;18.15;7.93;;;5.20;75.80;;;;;;5035452;28;20025;-68
2021/03/05 06:32:42;;;;;;;16.85;8.75;;;5.20;75.80;;;;;;5027549;28;20021;-66
2021/03/05 06:35:10;;;;;;;17.17;9.43;;;5.10;75.80;;;;;;5035042;28;20323;-65
2021/03/05 06:37:41;;;;;;;16.20;9.15;;;5.10;75.70;;;;;;5030268;28;20109;-66
2021/03/05 06:40:09;;;;;;;20.35;10.68;;;5.10;75.70;;;;;;5025871;28;20028;-66
2021/03/05 06:42:52;;;;;;;16.30;9.60;;;5.00;75.60;;;;;;5033745;28;20049;-65
2021/03/05 06:45:20;;;;;;;18.63;9.60;;;5.00;75.80;;;;;;5035059;28;20473;-66
2021/03/05 06:48:18;;;;;;;17.63;9.63;;;5.00;75.70;;;;;;5035574;28;20033;-68
2021/03/05 06:50:44;;;;;;;20.48;10.80;;;4.90;75.60;;;;;;4998999;28;20040;-68
2021/03/05 06:53:20;;;;;;;18.25;10.10;;;4.90;75.70;;;;;;5035834;28;20029;-65
2021/03/05 06:55:45;;;;;;;21.35;10.18;;;4.90;75.80;;;;;;5021001;28;20029;-66
2021/03/05 06:58:11;;;;;;;19.60;10.38;;;4.90;75.90;;;;;;5035741;28;20094;-66
2021/03/05 07:00:37;;;;;;;21.73;11.10;;;4.90;76.00;;;;;;5034722;28;20113;-67
2021/03/05 07:03:21;;;;;;;20.67;10.95;;;4.90;75.90;;;;;;5034783;28;20056;-66
2021/03/05 07:05:48;;;;;;;20.63;11.05;;;4.90;75.90;;;;;;5034667;28;20457;-66
2021/03/05 07:08:14;;;;;;;22.30;10.90;;;4.90;75.70;;;;;;5035362;28;20112;-68
2021/03/05 07:10:40;;;;;;;22.95;11.88;;;4.90;75.80;;;;;;5035162;28;20112;-64
2021/03/05 07:13:05;;;;;;;24.08;11.75;;;4.90;75.80;;;;;;5034833;28;20017;-66
2021/03/05 07:15:31;;;;;;;27.10;12.70;;;4.90;75.80;;;;;;5034802;28;20103;-65
2021/03/05 07:17:58;;;;;;;22.75;11.10;;;4.80;76.30;;;;;;5034831;28;20025;-66
2021/03/05 07:20:24;;;;;;;21.45;11.15;;;4.90;75.80;;;;;;5035182;28;20091;-65
2021/03/05 07:22:54;;;;;;;23.17;11.95;;;4.90;75.90;;;;;;5034840;28;20024;-65
2021/03/05 07:25:22;;;;;;;23.40;11.45;;;4.90;75.80;;;;;;5041814;28;20104;-64
2021/03/05 07:27:51;;;;;;;21.92;11.27;;;4.90;75.80;;;;;;5034553;28;20033;-65
2021/03/05 07:30:19;;;;;;;21.65;10.93;;;4.80;75.90;;;;;;5034875;28;20473;-65
2021/03/05 07:32:47;;;;;;;24.63;12.30;;;4.80;76.00;;;;;;5027228;28;20032;-65
2021/03/05 07:35:17;;;;;;;23.27;12.23;;;4.90;76.10;;;;;;5034288;28;20017;-69
2021/03/05 07:37:49;;;;;;;196.25;99.78;;;4.90;76.10;;;;;;5019512;28;20424;-65
2021/03/05 07:40:16;;;;;;;36.53;17.85;;;5.00;76.40;;;;;;5014801;28;20060;-65
2021/03/05 07:42:42;;;;;;;20.52;11.23;;;5.00;76.50;;;;;;5025240;28;20043;-67
2021/03/05 07:45:10;;;;;;;23.15;11.82;;;5.10;76.30;;;;;;5033557;28;20029;-66
2021/03/05 07:47:38;;;;;;;21.02;11.52;;;5.10;76.00;;;;;;5034294;28;20017;-66
2021/03/05 07:50:07;;;;;;;23.58;11.73;;;5.10;75.90;;;;;;5034465;28;20493;-65
2021/03/05 07:52:34;;;;;;;22.00;11.35;;;5.10;76.00;;;;;;5034142;28;20033;-65
2021/03/05 07:55:00;;;;;;;20.35;10.50;;;5.10;75.90;;;;;;5028306;28;20394;-68
2021/03/05 07:57:25;;;;;;;24.58;10.85;;;5.10;76.00;;;;;;5029813;28;20032;-67
2021/03/05 07:59:52;;;;;;;19.10;9.95;;;5.20;76.00;;;;;;5024660;28;20037;-65
2021/03/05 08:02:22;;;;;;;24.48;11.27;;;5.10;75.90;;;;;;5028743;28;20156;-68
2021/03/05 08:05:03;;;;;;;22.13;11.02;;;5.10;76.10;;;;;;5030998;28;20028;-65
2021/03/05 08:07:31;;;;;;;19.70;10.65;;;5.20;76.10;;;;;;5033914;28;20021;-66
2021/03/05 08:09:57;;;;;;;24.95;11.02;;;5.20;76.10;;;;;;5034093;28;20029;-65
2021/03/05 08:12:45;;;;;;;22.20;11.18;;;5.20;76.10;;;;;;5033759;28;20021;-65
2021/03/05 08:15:10;;;;;;;109.28;46.72;;;5.20;76.00;;;;;;5033374;28;20099;-67
2021/03/05 08:17:44;;;;;;;24.70;13.93;;;5.20;76.10;;;;;;5034006;28;20116;-69
2021/03/05 08:20:16;;;;;;;22.35;11.30;;;5.30;76.40;;;;;;5020755;28;20037;-65
2021/03/05 08:23:09;;;;;;;20.27;10.70;;;5.40;76.40;;;;;;5014348;28;20105;-66
2021/03/05 08:25:51;;;;;;;21.42;10.88;;;5.40;76.00;;;;;;5018992;28;20151;-68
2021/03/05 08:28:36;;;;;;;21.67;11.23;;;5.30;75.80;;;;;;5014824;28;20493;-65
2021/03/05 08:31:02;;;;;;;20.08;10.00;;;5.30;75.70;;;;;;5032518;28;20024;-65
2021/03/05 08:33:31;;;;;;;23.08;11.15;;;5.30;75.80;;;;;;5032971;28;20411;-66
2021/03/05 08:35:57;;;;;;;20.25;10.50;;;5.30;76.00;;;;;;5031719;28;20472;-67
2021/03/05 08:38:35;;;;;;;18.63;10.00;;;5.30;75.80;;;;;;5027903;28;20029;-66
2021/03/05 08:41:05;;;;;;;22.00;10.77;;;5.30;75.90;;;;;;5017963;28;20029;-66
2021/03/05 08:43:33;;;;;;;18.63;10.30;;;5.30;75.70;;;;;;5022897;28;20021;-65
2021/03/05 08:46:05;;;;;;;19.80;11.25;;;5.40;75.90;;;;;;5031883;28;20025;-67
2021/03/05 08:48:36;;;;;;;22.00;11.27;;;5.40;75.80;;;;;;5031451;28;20040;-67
2021/03/05 08:51:05;;;;;;;20.48;10.32;;;5.50;75.70;;;;;;5029465;28;20595;-67
2021/03/05 08:53:43;;;;;;;18.00;10.48;;;5.40;75.60;;;;;;5033238;28;20880;-66
2021/03/05 08:56:11;;;;;;;19.67;10.70;;;5.40;75.60;;;;;;5032037;28;20108;-66
2021/03/05 08:58:37;;;;;;;19.88;10.80;;;5.40;75.60;;;;;;5033227;28;20116;-66
2021/03/05 09:01:03;;;;;;;19.92;10.40;;;5.50;75.60;;;;;;5033550;28;20163;-67
2021/03/05 09:03:29;;;;;;;18.05;10.02;;;5.40;75.60;;;;;;5032944;28;20111;-67
2021/03/05 09:05:55;;;;;;;19.15;11.15;;;5.50;75.70;;;;;;5033088;28;20120;-66
2021/03/05 09:08:25;;;;;;;16.98;9.75;;;5.50;75.70;;;;;;5033494;28;20025;-67
2021/03/05 09:10:56;;;;;;;22.58;10.40;;;5.50;75.80;;;;;;5032717;28;20112;-67
2021/03/05 09:13:24;;;;;;;21.05;10.25;;;5.60;75.60;;;;;;5022508;28;20125;-66
2021/03/05 09:15:55;;;;;;;18.73;9.85;;;5.60;75.50;;;;;;5029973;28;20031;-66
2021/03/05 09:18:28;;;;;;;20.30;10.25;;;5.60;75.40;;;;;;5032623;28;20396;-67
2021/03/05 09:21:02;;;;;;;20.27;10.43;;;5.60;75.30;;;;;;5033214;28;20037;-66
2021/03/05 09:23:33;;;;;;;18.70;10.43;;;5.60;75.30;;;;;;5030928;28;20083;-66
2021/03/05 09:26:10;;;;;;;20.83;9.80;;;5.60;75.20;;;;;;5030325;28;20029;-67
2021/03/05 09:28:46;;;;;;;22.52;10.35;;;5.60;75.30;;;;;;5021985;28;20022;-65
2021/03/05 09:31:17;;;;;;;20.48;10.35;;;5.50;75.20;;;;;;5036084;28;20102;-65
2021/03/05 09:33:45;;;;;;;20.00;10.75;;;5.60;75.40;;;;;;5036236;28;20087;-65
2021/03/05 09:36:10;;;;;;;22.48;10.45;;;5.60;75.30;;;;;;5036689;28;20029;-65
2021/03/05 09:38:39;;;;;;;24.42;11.63;;;5.60;75.20;;;;;;5028852;28;20032;-65
2021/03/05 09:41:16;;;;;;;20.95;10.88;;;5.60;75.30;;;;;;5033507;28;20142;-65
2021/03/05 09:43:44;;;;;;;23.20;10.80;;;5.60;75.50;;;;;;5036416;28;20094;-66
2021/03/05 09:46:27;;;;;;;21.98;10.45;;;5.70;75.40;;;;;;5036244;28;20025;-66
2021/03/05 09:48:54;;;;;;;20.60;11.02;;;5.70;75.30;;;;;;5032788;28;20112;-65
2021/03/05 09:51:21;;;;;;;22.35;9.95;;;5.70;75.30;;;;;;5035235;28;20044;-67
2021/03/05 09:53:55;;;;;;;21.45;10.52;;;5.70;75.20;;;;;;5032127;28;20035;-64
2021/03/05 09:56:25;;;;;;;20.45;10.45;;;5.70;75.20;;;;;;5022198;28;20111;-65
2021/03/05 09:58:57;;;;;;;18.60;10.68;;;5.70;75.20;;;;;;5036516;28;20060;-64
2021/03/05 10:01:24;;;;;;;16.77;7.93;;;5.70;75.20;;;;;;5035023;28;20543;-67
2021/03/05 10:03:57;;;;;;;19.80;9.80;;;5.70;75.00;;;;;;5027247;28;20052;-66
2021/03/05 10:06:24;;;;;;;20.88;10.32;;;5.80;75.30;;;;;;5035099;28;20025;-67
2021/03/05 10:09:04;;;;;;;18.30;10.40;;;5.80;75.30;;;;;;5051354;28;20036;-65
2021/03/05 10:11:38;;;;;;;18.30;10.20;;;5.80;75.70;;;;;;5031228;28;20048;-67
2021/03/05 10:14:09;;;;;;;20.23;10.70;;;5.80;75.10;;;;;;5033710;28;20036;-66
2021/03/05 10:16:37;;;;;;;21.13;10.15;;;5.90;75.00;;;;;;5033810;28;20033;-66
2021/03/05 10:19:11;;;;;;;21.60;10.18;;;5.90;74.90;;;;;;5036160;28;20511;-67
2021/03/05 10:21:48;;;;;;;22.02;10.40;;;5.90;74.90;;;;;;5060760;23;20053;-68
2021/03/05 10:24:25;;;;;;;22.38;10.68;;;5.90;74.90;;;;;;5048756;28;20037;-68
2021/03/05 10:30:03;;;;;;;20.38;10.65;;;6.00;75.10;;;;;;5082564;28;20078;-67
2021/03/05 10:32:37;;;;;;;22.42;11.38;;;6.00;74.90;;;;;;5074997;28;20016;-68
2021/03/05 10:35:11;;;;;;;22.17;11.38;;;6.00;74.60;;;;;;5056187;28;20036;-67
2021/03/05 10:37:38;;;;;;;20.75;11.13;;;6.00;74.80;;;;;;5056220;28;20032;-68
2021/03/05 10:40:06;;;;;;;23.30;10.98;;;6.10;74.90;;;;;;5056451;28;20028;-67
2021/03/05 10:42:32;;;;;;;24.65;11.40;;;6.00;74.90;;;;;;5056834;28;20043;-68
2021/03/05 10:44:58;;;;;;;21.27;11.63;;;6.10;75.00;;;;;;5074829;28;20037;-67
2021/03/05 10:47:24;;;;;;;24.00;11.55;;;6.20;75.00;;;;;;5052983;28;20052;-67
2021/03/05 10:49:51;;;;;;;17.83;10.75;;;6.20;74.80;;;;;;5052026;28;20028;-68
2021/03/05 10:52:18;;;;;;;21.55;10.82;;;6.20;74.70;;;;;;5053811;28;20585;-67
2021/03/05 10:54:46;;;;;;;22.55;11.48;;;6.20;74.50;;;;;;5049492;28;20494;-67
2021/03/05 10:57:13;;;;;;;21.00;11.40;;;6.20;74.50;;;;;;5057448;28;20060;-68
2021/03/05 10:59:39;;;;;;;23.90;11.63;;;6.20;74.50;;;;;;5055119;28;20031;-67
2021/03/05 11:02:05;;;;;;;18.42;10.07;;;6.20;74.40;;;;;;5056142;28;20485;-67
2021/03/05 11:04:31;;;;;;;22.25;11.40;;;6.30;74.40;;;;;;5063178;28;20094;-66
2021/03/05 11:06:57;;;;;;;25.92;11.23;;;6.30;74.40;;;;;;5055850;28;20493;-67
2021/03/05 11:09:25;;;;;;;18.00;10.23;;;6.30;74.20;;;;;;5056165;28;20074;-69
2021/03/05 11:11:51;;;;;;;20.25;10.80;;;6.30;74.30;;;;;;5055850;28;20020;-68
2021/03/05 11:14:17;;;;;;;20.98;10.73;;;6.30;74.30;;;;;;5050930;28;20550;-68
2021/03/05 11:16:43;;;;;;;19.92;10.02;;;6.40;74.30;;;;;;5054826;28;20040;-67
2021/03/05 11:19:09;;;;;;;21.95;10.60;;;6.50;74.30;;;;;;5052631;28;20029;-67
2021/03/05 11:21:35;;;;;;;21.00;10.70;;;6.50;74.10;;;;;;5051661;28;20484;-68
2021/03/05 11:24:01;;;;;;;20.77;11.15;;;6.60;73.80;;;;;;5056357;28;20029;-67
2021/03/05 11:26:27;;;;;;;22.20;11.73;;;6.60;73.90;;;;;;5055624;28;20040;-68
2021/03/05 11:28:53;;;;;;;18.35;10.52;;;6.60;73.90;;;;;;5063632;28;20043;-68
2021/03/05 11:31:19;;;;;;;20.67;10.43;;;6.60;73.70;;;;;;5057186;28;20032;-68
2021/03/05 11:33:45;;;;;;;19.27;10.90;;;6.60;73.70;;;;;;5056572;28;20078;-68
2021/03/05 11:36:12;;;;;;;17.55;10.75;;;6.60;73.90;;;;;;5054931;28;20024;-67
2021/03/05 11:38:42;;;;;;;20.42;10.40;;;6.70;73.80;;;;;;5055967;28;20035;-68
2021/03/05 11:41:09;;;;;;;18.42;10.20;;;6.70;73.60;;;;;;5054398;28;20078;-67
2021/03/05 11:43:39;;;;;;;47.65;26.52;;;6.70;73.50;;;;;;5057663;28;20032;-68
2021/03/05 11:46:05;;;;;;;22.05;11.07;;;6.70;73.70;;;;;;5039578;28;20025;-68
2021/03/05 11:48:30;;;;;;;19.45;10.43;;;6.70;73.40;;;;;;5035744;28;20021;-68
2021/03/05 11:50:56;;;;;;;21.83;10.80;;;6.70;73.50;;;;;;5048627;28;20496;-68
2021/03/05 11:53:22;;;;;;;20.35;10.93;;;6.70;73.40;;;;;;5064829;28;20059;-68
2021/03/05 11:55:47;;;;;;;19.23;9.75;;;6.80;73.40;;;;;;5072410;28;20108;-68
2021/03/05 11:58:13;;;;;;;18.73;10.02;;;6.80;73.30;;;;;;5055221;28;20021;-68
2021/03/05 12:00:39;;;;;;;15.45;9.38;;;6.90;73.20;;;;;;5054637;28;20115;-68
2021/03/05 12:03:05;;;;;;;19.55;10.38;;;7.00;73.10;;;;;;5054995;28;20492;-68
2021/03/05 12:05:30;;;;;;;21.50;10.75;;;7.00;73.10;;;;;;5054128;28;20511;-68
2021/03/05 12:07:56;;;;;;;20.30;9.90;;;7.00;73.20;;;;;;5058646;28;20017;-68
2021/03/05 12:10:22;;;;;;;14.05;7.93;;;7.00;73.40;;;;;;5061012;28;20032;-68
2021/03/05 12:12:47;;;;;;;8.43;4.90;;;7.00;73.30;;;;;;5072130;28;20047;-68
2021/03/05 12:15:14;;;;;;;7.47;4.82;;;6.90;72.60;;;;;;5050281;28;20105;-68
2021/03/05 12:17:40;;;;;;;7.80;4.90;;;6.60;72.20;;;;;;5051621;28;20074;-68
2021/03/05 12:20:07;;;;;;;6.72;4.38;;;6.40;72.60;;;;;;5066408;28;20533;-68
2021/03/05 12:22:32;;;;;;;6.85;4.53;;;6.20;73.00;;;;;;5052641;28;20021;-69
2021/03/05 12:24:58;;;;;;;8.50;5.07;;;6.00;73.40;;;;;;5053759;28;20031;-68
2021/03/05 12:27:25;;;;;;;10.18;5.57;;;5.80;73.20;;;;;;5054606;28;20079;-68
2021/03/05 12:29:50;;;;;;;10.30;5.45;;;5.60;73.40;;;;;;5053692;28;20024;-68
2021/03/05 12:32:17;;;;;;;9.85;5.35;;;5.50;73.60;;;;;;5053844;28;20120;-68
2021/03/05 12:34:42;;;;;;;8.07;5.00;;;5.50;73.90;;;;;;5053179;28;20020;-68
2021/03/05 12:37:08;;;;;;;8.98;5.40;;;5.50;74.00;;;;;;5060240;28;20024;-67
2021/03/05 12:39:34;;;;;;;9.30;5.30;;;5.60;74.30;;;;;;5057952;28;20130;-68
2021/03/05 12:42:00;;;;;;;7.60;5.00;;;5.60;74.00;;;;;;5054052;28;20025;-68
2021/03/05 12:44:26;;;;;;;8.18;5.18;;;5.50;73.90;;;;;;5053048;28;20027;-68
2021/03/05 12:46:51;;;;;;;9.00;5.22;;;5.60;74.60;;;;;;5053591;28;20128;-68
2021/03/05 12:49:17;;;;;;;9.57;5.53;;;5.60;74.10;;;;;;5053640;28;20400;-68
2021/03/05 12:51:42;;;;;;;8.93;5.32;;;5.60;74.10;;;;;;5045367;28;20032;-68
2021/03/05 12:54:08;;;;;;;9.25;5.43;;;5.70;74.10;;;;;;5052784;28;20974;-68
2021/03/05 12:56:34;;;;;;;10.50;5.28;;;5.80;74.00;;;;;;5054654;28;20114;-68